sensor_id;sensor_type;location;lat;lon;timestamp;pressure;altitude;pressure_sealevel;temperature;humidity
65659;BME280;60181;53.258;6.932;2023-02-21T00:03:04;101782.50;;;14.42;65.89
65659;BME280;60181;53.258;6.932;2023-02-21T00:07:08;101780.71;;;14.43;65.20
65659;BME280;60181;53.258;6.932;2023-02-21T00:11:12;101777.42;;;14.42;65.45
65659;BME280;60181;53.258;6.932;2023-02-21T00:15:16;101775.08;;;14.42;65.45
65659;BME280;60181;53.258;6.932;2023-02-21T00:19:20;101773.10;;;14.41;65.45
65659;BME280;60181;53.258;6.932;2023-02-21T00:23:24;101773.07;;;14.40;65.43
65659;BME280;60181;53.258;6.932;2023-02-21T00:27:28;101774.57;;;14.39;65.48
65659;BME280;60181;53.258;6.932;2023-02-21T00:31:32;101776.64;;;14.38;65.53
65659;BME280;60181;53.258;6.932;2023-02-21T00:35:36;101778.83;;;14.37;65.59
65659;BME280;60181;53.258;6.932;2023-02-21T00:39:40;101779.96;;;14.36;65.66
65659;BME280;60181;53.258;6.932;2023-02-21T00:43:44;101782.50;;;14.36;65.76
65659;BME280;60181;53.258;6.932;2023-02-21T00:47:48;101786.41;;;14.36;65.89
65659;BME280;60181;53.258;6.932;2023-02-21T00:51:52;101789.46;;;14.37;65.84
65659;BME280;60181;53.258;6.932;2023-02-21T00:55:56;101791.47;;;14.38;66.01
65659;BME280;60181;53.258;6.932;2023-02-21T01:00:00;101794.69;;;14.38;66.09
65659;BME280;60181;53.258;6.932;2023-02-21T01:04:04;101796.00;;;14.38;66.13
65659;BME280;60181;53.258;6.932;2023-02-21T01:08:08;101796.63;;;14.37;66.28
65659;BME280;60181;53.258;6.932;2023-02-21T01:12:12;101795.53;;;14.36;66.19
65659;BME280;60181;53.258;6.932;2023-02-21T01:16:16;101793.42;;;14.37;66.07
65659;BME280;60181;53.258;6.932;2023-02-21T01:20:20;101791.39;;;14.38;66.05
65659;BME280;60181;53.258;6.932;2023-02-21T01:24:24;101789.54;;;14.37;66.01
65659;BME280;60181;53.258;6.932;2023-02-21T01:28:28;101789.90;;;14.38;66.01
65659;BME280;60181;53.258;6.932;2023-02-21T01:32:32;101791.01;;;14.39;65.80
65659;BME280;60181;53.258;6.932;2023-02-21T01:36:39;101791.03;;;14.40;65.82
65659;BME280;60181;53.258;6.932;2023-02-21T01:40:40;101791.67;;;14.43;65.51
65659;BME280;60181;53.258;6.932;2023-02-21T01:44:45;101792.10;;;14.46;65.88
65659;BME280;60181;53.258;6.932;2023-02-21T01:48:48;101791.66;;;14.48;65.80
65659;BME280;60181;53.258;6.932;2023-02-21T01:52:52;101791.40;;;14.50;65.98
65659;BME280;60181;53.258;6.932;2023-02-21T01:56:57;101790.97;;;14.53;65.87
65659;BME280;60181;53.258;6.932;2023-02-21T02:01:00;101789.89;;;14.52;66.19
65659;BME280;60181;53.258;6.932;2023-02-21T02:05:04;101789.53;;;14.52;66.27
65659;BME280;60181;53.258;6.932;2023-02-21T02:09:17;101787.44;;;14.50;66.55
65659;BME280;60181;53.258;6.932;2023-02-21T02:13:22;101785.82;;;14.48;66.44
65659;BME280;60181;53.258;6.932;2023-02-21T02:17:26;101786.36;;;14.47;66.70
65659;BME280;60181;53.258;6.932;2023-02-21T02:25:28;101787.19;;;14.47;67.51
65659;BME280;60181;53.258;6.932;2023-02-21T02:41:48;101788.03;;;14.45;66.27
65659;BME280;60181;53.258;6.932;2023-02-21T02:49:48;101787.30;;;14.39;66.07
65659;BME280;60181;53.258;6.932;2023-02-21T02:53:52;101788.23;;;14.37;65.92
65659;BME280;60181;53.258;6.932;2023-02-21T02:57:56;101790.47;;;14.35;65.88
65659;BME280;60181;53.258;6.932;2023-02-21T03:02:13;101792.63;;;14.32;65.96
65659;BME280;60181;53.258;6.932;2023-02-21T03:06:07;101795.78;;;14.30;65.90
65659;BME280;60181;53.258;6.932;2023-02-21T03:10:27;101797.53;;;14.28;65.89
65659;BME280;60181;53.258;6.932;2023-02-21T03:14:12;101799.53;;;14.26;65.85
65659;BME280;60181;53.258;6.932;2023-02-21T03:22:21;101805.69;;;14.23;65.66
65659;BME280;60181;53.258;6.932;2023-02-21T03:26:24;101809.23;;;14.22;65.53
65659;BME280;60181;53.258;6.932;2023-02-21T03:30:28;101812.17;;;14.21;65.56
65659;BME280;60181;53.258;6.932;2023-02-21T03:34:32;101813.71;;;14.21;65.46
65659;BME280;60181;53.258;6.932;2023-02-21T03:38:36;101814.53;;;14.20;65.30
65659;BME280;60181;53.258;6.932;2023-02-21T03:42:40;101813.92;;;14.19;65.32
65659;BME280;60181;53.258;6.932;2023-02-21T03:46:44;101813.23;;;14.18;65.30
65659;BME280;60181;53.258;6.932;2023-02-21T03:50:48;101812.87;;;14.23;64.62
65659;BME280;60181;53.258;6.932;2023-02-21T03:54:52;101813.84;;;14.25;64.76
65659;BME280;60181;53.258;6.932;2023-02-21T03:58:56;101816.54;;;14.26;64.91
65659;BME280;60181;53.258;6.932;2023-02-21T04:03:00;101819.42;;;14.27;65.05
65659;BME280;60181;53.258;6.932;2023-02-21T04:07:04;101822.06;;;14.27;65.22
65659;BME280;60181;53.258;6.932;2023-02-21T04:11:08;101825.84;;;14.27;65.34
65659;BME280;60181;53.258;6.932;2023-02-21T04:15:12;101828.57;;;14.26;65.37
65659;BME280;60181;53.258;6.932;2023-02-21T04:19:16;101830.44;;;14.26;65.41
65659;BME280;60181;53.258;6.932;2023-02-21T04:23:20;101832.20;;;14.27;65.23
65659;BME280;60181;53.258;6.932;2023-02-21T04:27:24;101834.29;;;14.28;65.34
65659;BME280;60181;53.258;6.932;2023-02-21T04:31:28;101834.32;;;14.29;65.31
65659;BME280;60181;53.258;6.932;2023-02-21T04:35:32;101835.31;;;14.29;65.40
65659;BME280;60181;53.258;6.932;2023-02-21T04:39:36;101836.30;;;14.29;65.58
65659;BME280;60181;53.258;6.932;2023-02-21T04:43:41;101835.82;;;14.27;65.60
65659;BME280;60181;53.258;6.932;2023-02-21T04:47:44;101835.05;;;14.26;65.58
65659;BME280;60181;53.258;6.932;2023-02-21T04:51:48;101834.03;;;14.25;65.58
65659;BME280;60181;53.258;6.932;2023-02-21T04:55:52;101833.99;;;14.24;65.60
65659;BME280;60181;53.258;6.932;2023-02-21T04:59:56;101832.81;;;14.23;65.64
65659;BME280;60181;53.258;6.932;2023-02-21T05:04:00;101833.14;;;14.23;65.56
65659;BME280;60181;53.258;6.932;2023-02-21T05:08:04;101834.05;;;14.23;65.56
65659;BME280;60181;53.258;6.932;2023-02-21T05:12:08;101834.63;;;14.22;65.58
65659;BME280;60181;53.258;6.932;2023-02-21T05:16:12;101836.49;;;14.22;65.64
65659;BME280;60181;53.258;6.932;2023-02-21T05:20:16;101837.39;;;14.21;65.61
65659;BME280;60181;53.258;6.932;2023-02-21T05:24:20;101838.01;;;14.20;65.66
65659;BME280;60181;53.258;6.932;2023-02-21T05:28:24;101838.56;;;14.19;65.62
65659;BME280;60181;53.258;6.932;2023-02-21T05:32:28;101839.67;;;14.20;66.19
65659;BME280;60181;53.258;6.932;2023-02-21T05:36:32;101840.11;;;14.22;65.82
65659;BME280;60181;53.258;6.932;2023-02-21T05:40:35;101840.57;;;14.21;65.74
65659;BME280;60181;53.258;6.932;2023-02-21T05:44:39;101840.08;;;14.20;65.61
65659;BME280;60181;53.258;6.932;2023-02-21T05:48:43;101838.56;;;14.19;65.77
65659;BME280;60181;53.258;6.932;2023-02-21T05:52:47;101837.54;;;14.18;65.71
65659;BME280;60181;53.258;6.932;2023-02-21T05:56:51;101836.93;;;14.17;65.69
65659;BME280;60181;53.258;6.932;2023-02-21T06:00:55;101837.09;;;14.17;65.73
65659;BME280;60181;53.258;6.932;2023-02-21T06:04:59;101836.68;;;14.17;65.90
65659;BME280;60181;53.258;6.932;2023-02-21T06:09:04;101837.17;;;14.17;65.72
65659;BME280;60181;53.258;6.932;2023-02-21T06:13:07;101836.31;;;14.16;65.82
65659;BME280;60181;53.258;6.932;2023-02-21T06:17:11;101835.55;;;14.15;65.81
65659;BME280;60181;53.258;6.932;2023-02-21T06:21:16;101835.25;;;14.15;67.61
65659;BME280;60181;53.258;6.932;2023-02-21T06:25:19;101835.16;;;14.16;66.01
65659;BME280;60181;53.258;6.932;2023-02-21T06:29:23;101835.61;;;14.17;65.69
65659;BME280;60181;53.258;6.932;2023-02-21T06:33:27;101836.84;;;14.17;65.76
65659;BME280;60181;53.258;6.932;2023-02-21T06:37:31;101838.79;;;14.16;65.82
65659;BME280;60181;53.258;6.932;2023-02-21T06:41:35;101841.85;;;14.16;65.91
65659;BME280;60181;53.258;6.932;2023-02-21T06:45:39;101842.66;;;14.15;65.80
65659;BME280;60181;53.258;6.932;2023-02-21T06:49:43;101843.05;;;14.15;65.78
65659;BME280;60181;53.258;6.932;2023-02-21T06:53:48;101842.63;;;14.14;65.83
65659;BME280;60181;53.258;6.932;2023-02-21T06:57:51;101842.40;;;14.12;68.64
65659;BME280;60181;53.258;6.932;2023-02-21T07:01:56;101844.02;;;14.11;66.30
65659;BME280;60181;53.258;6.932;2023-02-21T07:05:59;101845.53;;;14.12;65.80
65659;BME280;60181;53.258;6.932;2023-02-21T07:10:04;101847.92;;;14.13;65.92
65659;BME280;60181;53.258;6.932;2023-02-21T07:14:09;101851.40;;;14.13;65.93
65659;BME280;60181;53.258;6.932;2023-02-21T07:18:11;101854.00;;;14.14;65.92
65659;BME280;60181;53.258;6.932;2023-02-21T07:22:16;101855.31;;;14.15;66.00
65659;BME280;60181;53.258;6.932;2023-02-21T07:26:19;101857.90;;;14.16;65.89
65659;BME280;60181;53.258;6.932;2023-02-21T07:30:23;101859.47;;;14.16;65.98
65659;BME280;60181;53.258;6.932;2023-02-21T07:34:27;101859.88;;;14.18;65.53
65659;BME280;60181;53.258;6.932;2023-02-21T07:38:31;101861.44;;;14.24;65.66
65659;BME280;60181;53.258;6.932;2023-02-21T07:42:35;101862.85;;;14.27;65.68
65659;BME280;60181;53.258;6.932;2023-02-21T07:46:39;101864.86;;;14.28;65.85
65659;BME280;60181;53.258;6.932;2023-02-21T07:50:44;101867.91;;;14.28;65.81
65659;BME280;60181;53.258;6.932;2023-02-21T07:54:47;101869.89;;;14.28;65.81
65659;BME280;60181;53.258;6.932;2023-02-21T07:58:51;101872.49;;;14.27;65.78
65659;BME280;60181;53.258;6.932;2023-02-21T08:02:55;101873.97;;;14.27;65.77
65659;BME280;60181;53.258;6.932;2023-02-21T08:07:00;101875.42;;;14.26;65.74
65659;BME280;60181;53.258;6.932;2023-02-21T08:11:04;101878.23;;;14.26;65.69
65659;BME280;60181;53.258;6.932;2023-02-21T08:15:08;101879.80;;;14.26;65.62
65659;BME280;60181;53.258;6.932;2023-02-21T08:19:11;101880.38;;;14.26;65.62
65659;BME280;60181;53.258;6.932;2023-02-21T08:23:15;101881.61;;;14.26;65.51
65659;BME280;60181;53.258;6.932;2023-02-21T08:27:19;101883.34;;;14.26;65.47
65659;BME280;60181;53.258;6.932;2023-02-21T08:31:23;101885.27;;;14.27;65.27
65659;BME280;60181;53.258;6.932;2023-02-21T08:35:27;101886.83;;;14.32;64.85
65659;BME280;60181;53.258;6.932;2023-02-21T08:39:31;101888.73;;;14.38;64.62
65659;BME280;60181;53.258;6.932;2023-02-21T08:43:35;101890.59;;;14.42;64.57
65659;BME280;60181;53.258;6.932;2023-02-21T08:47:39;101891.92;;;14.46;64.50
65659;BME280;60181;53.258;6.932;2023-02-21T08:51:43;101892.81;;;14.49;64.53
65659;BME280;60181;53.258;6.932;2023-02-21T08:55:47;101894.15;;;14.51;64.51
65659;BME280;60181;53.258;6.932;2023-02-21T08:59:51;101895.78;;;14.53;64.53
65659;BME280;60181;53.258;6.932;2023-02-21T09:03:55;101897.16;;;14.55;64.48
65659;BME280;60181;53.258;6.932;2023-02-21T09:07:59;101897.77;;;14.57;64.44
65659;BME280;60181;53.258;6.932;2023-02-21T09:12:03;101897.34;;;14.59;64.39
65659;BME280;60181;53.258;6.932;2023-02-21T09:16:07;101897.54;;;14.61;64.30
65659;BME280;60181;53.258;6.932;2023-02-21T09:20:14;101897.19;;;14.63;64.30
65659;BME280;60181;53.258;6.932;2023-02-21T09:24:15;101896.40;;;14.64;64.27
65659;BME280;60181;53.258;6.932;2023-02-21T09:28:20;101896.47;;;14.66;64.30
65659;BME280;60181;53.258;6.932;2023-02-21T09:32:23;101895.34;;;14.67;64.28
65659;BME280;60181;53.258;6.932;2023-02-21T09:36:27;101894.90;;;14.68;64.29
65659;BME280;60181;53.258;6.932;2023-02-21T09:40:41;101894.17;;;14.69;64.37
65659;BME280;60181;53.258;6.932;2023-02-21T09:44:35;101896.09;;;14.69;64.34
65659;BME280;60181;53.258;6.932;2023-02-21T09:48:40;101898.11;;;14.70;64.38
65659;BME280;60181;53.258;6.932;2023-02-21T09:52:43;101900.66;;;14.70;64.39
65659;BME280;60181;53.258;6.932;2023-02-21T09:56:47;101903.50;;;14.72;64.96
65659;BME280;60181;53.258;6.932;2023-02-21T10:00:51;101904.61;;;14.76;64.69
65659;BME280;60181;53.258;6.932;2023-02-21T10:09:05;101906.03;;;14.79;64.40
65659;BME280;60181;53.258;6.932;2023-02-21T10:13:06;101905.58;;;14.79;64.63
65659;BME280;60181;53.258;6.932;2023-02-21T10:17:18;101907.06;;;14.78;64.71
65659;BME280;60181;53.258;6.932;2023-02-21T10:21:14;101909.67;;;14.78;64.72
65659;BME280;60181;53.258;6.932;2023-02-21T10:25:18;101912.73;;;14.77;64.85
65659;BME280;60181;53.258;6.932;2023-02-21T10:29:26;101915.75;;;14.76;64.92
65659;BME280;60181;53.258;6.932;2023-02-21T10:33:23;101918.44;;;14.75;64.94
65659;BME280;60181;53.258;6.932;2023-02-21T10:37:32;101920.67;;;14.74;64.99
65659;BME280;60181;53.258;6.932;2023-02-21T10:41:31;101923.60;;;14.74;65.03
65659;BME280;60181;53.258;6.932;2023-02-21T10:49:44;101929.13;;;14.73;65.04
65659;BME280;60181;53.258;6.932;2023-02-21T10:53:44;101932.59;;;14.74;65.02
65659;BME280;60181;53.258;6.932;2023-02-21T10:57:53;101934.41;;;14.74;65.02
65659;BME280;60181;53.258;6.932;2023-02-21T11:01:51;101935.51;;;14.74;65.07
65659;BME280;60181;53.258;6.932;2023-02-21T11:05:55;101937.16;;;14.75;65.05
65659;BME280;60181;53.258;6.932;2023-02-21T11:09:59;101939.34;;;14.76;65.05
65659;BME280;60181;53.258;6.932;2023-02-21T11:14:19;101939.75;;;14.76;65.07
65659;BME280;60181;53.258;6.932;2023-02-21T11:18:17;101939.95;;;14.77;65.08
65659;BME280;60181;53.258;6.932;2023-02-21T11:22:11;101940.94;;;14.77;65.20
65659;BME280;60181;53.258;6.932;2023-02-21T11:26:15;101942.61;;;14.78;65.22
65659;BME280;60181;53.258;6.932;2023-02-21T11:30:20;101943.03;;;14.78;65.15
65659;BME280;60181;53.258;6.932;2023-02-21T11:34:25;101944.05;;;14.79;65.28
65659;BME280;60181;53.258;6.932;2023-02-21T11:38:43;101943.64;;;14.79;65.28
65659;BME280;60181;53.258;6.932;2023-02-21T11:42:32;101942.07;;;14.80;65.35
65659;BME280;60181;53.258;6.932;2023-02-21T11:50:40;101940.04;;;14.81;65.41
65659;BME280;60181;53.258;6.932;2023-02-21T11:54:43;101937.52;;;14.81;65.31
65659;BME280;60181;53.258;6.932;2023-02-21T11:58:55;101935.62;;;14.81;65.44
65659;BME280;60181;53.258;6.932;2023-02-21T12:07:18;101931.98;;;14.81;65.48
65659;BME280;60181;53.258;6.932;2023-02-21T12:11:02;101929.60;;;14.81;65.49
65659;BME280;60181;53.258;6.932;2023-02-21T12:15:10;101927.86;;;14.81;65.49
65659;BME280;60181;53.258;6.932;2023-02-21T12:23:21;101924.89;;;14.82;65.51
65659;BME280;60181;53.258;6.932;2023-02-21T12:35:37;101916.44;;;14.82;65.52
65659;BME280;60181;53.258;6.932;2023-02-21T12:39:41;101913.22;;;14.83;65.54
65659;BME280;60181;53.258;6.932;2023-02-21T12:43:44;101910.41;;;14.83;65.43
65659;BME280;60181;53.258;6.932;2023-02-21T12:51:41;101906.73;;;14.84;65.51
65659;BME280;60181;53.258;6.932;2023-02-21T12:55:47;101904.58;;;14.84;65.53
65659;BME280;60181;53.258;6.932;2023-02-21T12:59:54;101902.69;;;14.84;65.50
65659;BME280;60181;53.258;6.932;2023-02-21T13:07:57;101898.63;;;14.95;66.68
65659;BME280;60181;53.258;6.932;2023-02-21T13:12:09;101896.26;;;14.96;66.83
65659;BME280;60181;53.258;6.932;2023-02-21T13:16:04;101894.56;;;14.97;66.83
65659;BME280;60181;53.258;6.932;2023-02-21T13:20:08;101892.05;;;14.96;66.64
65659;BME280;60181;53.258;6.932;2023-02-21T13:28:21;101884.88;;;15.00;66.76
65659;BME280;60181;53.258;6.932;2023-02-21T13:32:19;101881.03;;;15.00;66.79
65659;BME280;60181;53.258;6.932;2023-02-21T13:36:29;101877.79;;;14.99;66.85
65659;BME280;60181;53.258;6.932;2023-02-21T13:40:37;101874.05;;;14.98;66.64
65659;BME280;60181;53.258;6.932;2023-02-21T13:48:35;101867.25;;;14.97;66.45
65659;BME280;60181;53.258;6.932;2023-02-21T13:52:52;101863.26;;;14.96;66.65
65659;BME280;60181;53.258;6.932;2023-02-21T13:56:43;101860.96;;;14.96;66.55
65659;BME280;60181;53.258;6.932;2023-02-21T14:00:48;101858.86;;;14.95;66.67
65659;BME280;60181;53.258;6.932;2023-02-21T14:09:02;101855.53;;;14.94;66.49
65659;BME280;60181;53.258;6.932;2023-02-21T14:13:00;101852.06;;;14.94;66.40
65659;BME280;60181;53.258;6.932;2023-02-21T14:17:12;101849.10;;;14.94;66.40
65659;BME280;60181;53.258;6.932;2023-02-21T14:21:13;101846.73;;;14.94;66.31
65659;BME280;60181;53.258;6.932;2023-02-21T14:25:17;101843.81;;;14.94;66.37
65659;BME280;60181;53.258;6.932;2023-02-21T14:33:23;101840.34;;;14.94;66.31
65659;BME280;60181;53.258;6.932;2023-02-21T14:37:33;101838.48;;;14.94;66.24
65659;BME280;60181;53.258;6.932;2023-02-21T14:45:50;101833.42;;;14.94;66.23
65659;BME280;60181;53.258;6.932;2023-02-21T15:05:55;101825.25;;;14.93;66.25
65659;BME280;60181;53.258;6.932;2023-02-21T15:10:11;101824.89;;;14.93;66.13
65659;BME280;60181;53.258;6.932;2023-02-21T15:14:20;101824.73;;;14.92;66.12
65659;BME280;60181;53.258;6.932;2023-02-21T15:18:04;101824.70;;;14.92;66.10
65659;BME280;60181;53.258;6.932;2023-02-21T15:22:14;101824.34;;;14.91;66.10
65659;BME280;60181;53.258;6.932;2023-02-21T15:26:24;101824.75;;;14.90;66.22
65659;BME280;60181;53.258;6.932;2023-02-21T15:30:22;101825.80;;;14.89;66.11
65659;BME280;60181;53.258;6.932;2023-02-21T15:34:25;101827.66;;;14.88;66.07
65659;BME280;60181;53.258;6.932;2023-02-21T15:42:27;101830.44;;;14.87;66.14
65659;BME280;60181;53.258;6.932;2023-02-21T15:46:39;101831.67;;;14.87;66.15
65659;BME280;60181;53.258;6.932;2023-02-21T15:50:38;101832.14;;;14.86;66.11
65659;BME280;60181;53.258;6.932;2023-02-21T15:54:39;101832.14;;;14.86;66.08
65659;BME280;60181;53.258;6.932;2023-02-21T15:59:01;101830.83;;;14.93;66.34
65659;BME280;60181;53.258;6.932;2023-02-21T16:02:47;101831.06;;;14.98;66.21
65659;BME280;60181;53.258;6.932;2023-02-21T16:06:54;101832.87;;;14.99;66.71
65659;BME280;60181;53.258;6.932;2023-02-21T16:11:00;101833.95;;;14.98;66.82
65659;BME280;60181;53.258;6.932;2023-02-21T16:15:06;101835.57;;;14.97;66.62
65659;BME280;60181;53.258;6.932;2023-02-21T16:19:03;101836.86;;;14.96;66.62
65659;BME280;60181;53.258;6.932;2023-02-21T16:27:14;101839.28;;;14.94;66.43
65659;BME280;60181;53.258;6.932;2023-02-21T16:31:16;101840.98;;;14.93;66.44
65659;BME280;60181;53.258;6.932;2023-02-21T16:35:21;101842.60;;;14.92;66.46
65659;BME280;60181;53.258;6.932;2023-02-21T16:39:23;101845.08;;;14.92;66.39
65659;BME280;60181;53.258;6.932;2023-02-21T16:43:27;101847.11;;;14.91;66.41
65659;BME280;60181;53.258;6.932;2023-02-21T16:47:31;101850.00;;;14.90;66.72
65659;BME280;60181;53.258;6.932;2023-02-21T16:51:35;101852.00;;;14.92;66.90
65659;BME280;60181;53.258;6.932;2023-02-21T16:55:39;101854.27;;;14.92;66.68
65659;BME280;60181;53.258;6.932;2023-02-21T16:59:43;101856.46;;;14.92;66.78
65659;BME280;60181;53.258;6.932;2023-02-21T17:03:47;101858.94;;;14.92;66.80
65659;BME280;60181;53.258;6.932;2023-02-21T17:07:51;101861.13;;;14.91;66.88
65659;BME280;60181;53.258;6.932;2023-02-21T17:11:55;101863.94;;;14.90;66.82
65659;BME280;60181;53.258;6.932;2023-02-21T17:15:58;101865.97;;;14.89;66.88
65659;BME280;60181;53.258;6.932;2023-02-21T17:20:03;101867.95;;;14.89;66.83
65659;BME280;60181;53.258;6.932;2023-02-21T17:24:07;101870.14;;;14.89;66.84
65659;BME280;60181;53.258;6.932;2023-02-21T17:28:10;101872.78;;;14.88;66.82
65659;BME280;60181;53.258;6.932;2023-02-21T17:32:15;101874.93;;;14.88;66.78
65659;BME280;60181;53.258;6.932;2023-02-21T17:36:19;101877.04;;;14.87;66.79
65659;BME280;60181;53.258;6.932;2023-02-21T17:40:22;101879.77;;;14.87;66.81
65659;BME280;60181;53.258;6.932;2023-02-21T17:44:26;101882.48;;;14.87;66.77
65659;BME280;60181;53.258;6.932;2023-02-21T17:48:30;101884.60;;;14.86;66.81
65659;BME280;60181;53.258;6.932;2023-02-21T17:52:34;101886.25;;;14.86;66.84
65659;BME280;60181;53.258;6.932;2023-02-21T17:56:38;101886.91;;;14.86;66.86
65659;BME280;60181;53.258;6.932;2023-02-21T18:00:43;101887.91;;;14.86;66.83
65659;BME280;60181;53.258;6.932;2023-02-21T18:04:46;101888.61;;;14.85;66.77
65659;BME280;60181;53.258;6.932;2023-02-21T18:08:50;101890.34;;;14.85;66.77
65659;BME280;60181;53.258;6.932;2023-02-21T18:12:55;101890.26;;;14.85;66.79
65659;BME280;60181;53.258;6.932;2023-02-21T18:16:58;101889.85;;;14.85;67.09
65659;BME280;60181;53.258;6.932;2023-02-21T18:21:03;101890.37;;;14.83;67.37
65659;BME280;60181;53.258;6.932;2023-02-21T18:25:06;101892.52;;;14.78;68.09
65659;BME280;60181;53.258;6.932;2023-02-21T18:29:10;101894.02;;;14.72;68.27
65659;BME280;60181;53.258;6.932;2023-02-21T18:33:14;101895.50;;;14.67;68.31
65659;BME280;60181;53.258;6.932;2023-02-21T18:37:18;101895.73;;;14.64;68.29
65659;BME280;60181;53.258;6.932;2023-02-21T18:41:22;101895.56;;;14.61;68.23
65659;BME280;60181;53.258;6.932;2023-02-21T18:45:26;101895.17;;;14.58;68.23
65659;BME280;60181;53.258;6.932;2023-02-21T18:49:30;101895.01;;;14.56;68.21
65659;BME280;60181;53.258;6.932;2023-02-21T18:53:34;101894.17;;;14.55;68.22
65659;BME280;60181;53.258;6.932;2023-02-21T18:57:38;101892.97;;;14.54;68.17
65659;BME280;60181;53.258;6.932;2023-02-21T19:01:42;101891.13;;;14.53;68.16
65659;BME280;60181;53.258;6.932;2023-02-21T19:05:46;101889.98;;;14.52;68.13
65659;BME280;60181;53.258;6.932;2023-02-21T19:09:50;101888.46;;;14.52;68.15
65659;BME280;60181;53.258;6.932;2023-02-21T19:13:54;101887.55;;;14.51;68.15
65659;BME280;60181;53.258;6.932;2023-02-21T19:17:58;101886.65;;;14.51;68.15
65659;BME280;60181;53.258;6.932;2023-02-21T19:22:03;101885.00;;;14.51;68.12
65659;BME280;60181;53.258;6.932;2023-02-21T19:26:06;101882.28;;;14.51;68.07
65659;BME280;60181;53.258;6.932;2023-02-21T19:30:11;101880.14;;;14.51;68.12
65659;BME280;60181;53.258;6.932;2023-02-21T19:34:14;101879.64;;;14.51;68.07
65659;BME280;60181;53.258;6.932;2023-02-21T19:38:18;101877.72;;;14.51;68.09
65659;BME280;60181;53.258;6.932;2023-02-21T19:42:22;101875.81;;;14.50;68.07
65659;BME280;60181;53.258;6.932;2023-02-21T19:46:26;101874.66;;;14.50;68.10
65659;BME280;60181;53.258;6.932;2023-02-21T19:50:30;101872.41;;;14.52;68.17
65659;BME280;60181;53.258;6.932;2023-02-21T19:54:34;101870.79;;;14.59;67.28
65659;BME280;60181;53.258;6.932;2023-02-21T19:58:38;101868.97;;;14.65;67.21
65659;BME280;60181;53.258;6.932;2023-02-21T20:02:42;101866.58;;;14.69;67.35
65659;BME280;60181;53.258;6.932;2023-02-21T20:06:46;101864.57;;;14.72;67.35
65659;BME280;60181;53.258;6.932;2023-02-21T20:10:50;101862.91;;;14.74;67.37
65659;BME280;60181;53.258;6.932;2023-02-21T20:14:54;101861.06;;;14.76;67.35
65659;BME280;60181;53.258;6.932;2023-02-21T20:18:58;101859.61;;;14.77;67.35
65659;BME280;60181;53.258;6.932;2023-02-21T20:23:02;101858.57;;;14.79;67.25
65659;BME280;60181;53.258;6.932;2023-02-21T20:27:06;101856.37;;;14.79;67.20
65659;BME280;60181;53.258;6.932;2023-02-21T20:31:11;101854.51;;;14.80;67.20
65659;BME280;60181;53.258;6.932;2023-02-21T20:35:14;101852.70;;;14.81;67.20
65659;BME280;60181;53.258;6.932;2023-02-21T20:39:22;101850.42;;;14.81;67.17
65659;BME280;60181;53.258;6.932;2023-02-21T20:43:22;101848.52;;;14.81;67.15
65659;BME280;60181;53.258;6.932;2023-02-21T20:47:26;101845.71;;;14.82;67.15
65659;BME280;60181;53.258;6.932;2023-02-21T20:51:31;101842.44;;;14.83;67.49
65659;BME280;60181;53.258;6.932;2023-02-21T20:55:35;101839.51;;;14.87;67.16
65659;BME280;60181;53.258;6.932;2023-02-21T20:59:38;101835.83;;;14.92;66.95
65659;BME280;60181;53.258;6.932;2023-02-21T21:03:42;101833.34;;;14.94;66.75
65659;BME280;60181;53.258;6.932;2023-02-21T21:07:46;101831.69;;;14.94;66.86
65659;BME280;60181;53.258;6.932;2023-02-21T21:11:50;101831.94;;;14.94;66.97
65659;BME280;60181;53.258;6.932;2023-02-21T21:15:54;101832.48;;;14.93;67.10
65659;BME280;60181;53.258;6.932;2023-02-21T21:19:58;101832.70;;;14.92;67.07
65659;BME280;60181;53.258;6.932;2023-02-21T21:24:03;101833.45;;;14.91;67.11
65659;BME280;60181;53.258;6.932;2023-02-21T21:28:06;101833.74;;;14.91;67.09
65659;BME280;60181;53.258;6.932;2023-02-21T21:32:11;101834.56;;;14.90;67.04
65659;BME280;60181;53.258;6.932;2023-02-21T21:36:14;101834.70;;;14.90;67.01
65659;BME280;60181;53.258;6.932;2023-02-21T21:40:20;101834.21;;;14.89;67.02
65659;BME280;60181;53.258;6.932;2023-02-21T21:44:22;101833.69;;;14.89;67.02
65659;BME280;60181;53.258;6.932;2023-02-21T21:48:26;101833.26;;;14.88;66.98
65659;BME280;60181;53.258;6.932;2023-02-21T21:52:30;101832.28;;;14.88;66.96
65659;BME280;60181;53.258;6.932;2023-02-21T21:56:34;101831.21;;;14.88;66.94
65659;BME280;60181;53.258;6.932;2023-02-21T22:00:38;101828.78;;;14.87;66.98
65659;BME280;60181;53.258;6.932;2023-02-21T22:04:42;101826.39;;;14.87;66.93
65659;BME280;60181;53.258;6.932;2023-02-21T22:08:46;101822.27;;;14.87;67.21
65659;BME280;60181;53.258;6.932;2023-02-21T22:12:51;101818.87;;;14.89;66.55
65659;BME280;60181;53.258;6.932;2023-02-21T22:16:54;101815.42;;;14.84;66.91
65659;BME280;60181;53.258;6.932;2023-02-21T22:20:58;101813.29;;;14.78;67.09
65659;BME280;60181;53.258;6.932;2023-02-21T22:25:02;101810.35;;;14.73;67.26
65659;BME280;60181;53.258;6.932;2023-02-21T22:29:06;101807.50;;;14.68;67.28
65659;BME280;60181;53.258;6.932;2023-02-21T22:33:13;101802.98;;;14.63;67.29
65659;BME280;60181;53.258;6.932;2023-02-21T22:37:14;101798.74;;;14.60;67.26
65659;BME280;60181;53.258;6.932;2023-02-21T22:41:19;101795.37;;;14.57;67.30
65659;BME280;60181;53.258;6.932;2023-02-21T22:45:22;101793.09;;;14.54;67.21
65659;BME280;60181;53.258;6.932;2023-02-21T22:49:26;101789.70;;;14.52;67.21
65659;BME280;60181;53.258;6.932;2023-02-21T22:53:30;101787.11;;;14.50;67.23
65659;BME280;60181;53.258;6.932;2023-02-21T22:57:34;101784.83;;;14.48;67.27
65659;BME280;60181;53.258;6.932;2023-02-21T23:01:38;101783.72;;;14.47;67.31